sensor_id;sensor_type;location;lat;lon;timestamp;pressure;altitude;pressure_sealevel;temperature;humidity
9059;BME280;4564;42.034;25.834;2023-02-10T00:02:24;102494.56;;;-5.51;76.65
9059;BME280;4564;42.034;25.834;2023-02-10T00:04:50;102502.34;;;-5.43;77.51
9059;BME280;4564;42.034;25.834;2023-02-10T00:07:17;102502.00;;;-5.28;77.13
9059;BME280;4564;42.034;25.834;2023-02-10T00:09:43;102500.66;;;-5.47;76.11
9059;BME280;4564;42.034;25.834;2023-02-10T00:12:10;102499.31;;;-5.67;76.72
9059;BME280;4564;42.034;25.834;2023-02-10T00:14:37;102492.16;;;-5.62;77.37
9059;BME280;4564;42.034;25.834;2023-02-10T00:17:05;102490.41;;;-5.63;76.40
9059;BME280;4564;42.034;25.834;2023-02-10T00:19:32;102492.19;;;-5.65;76.25
9059;BME280;4564;42.034;25.834;2023-02-10T00:21:58;102503.28;;;-5.89;76.65
9059;BME280;4564;42.034;25.834;2023-02-10T00:24:25;102501.47;;;-5.87;77.35
9059;BME280;4564;42.034;25.834;2023-02-10T00:26:52;102503.88;;;-5.76;77.71
9059;BME280;4564;42.034;25.834;2023-02-10T00:29:19;102505.50;;;-5.69;77.46
9059;BME280;4564;42.034;25.834;2023-02-10T00:31:46;102511.91;;;-5.81;76.88
9059;BME280;4564;42.034;25.834;2023-02-10T00:34:14;102506.06;;;-5.98;77.40
9059;BME280;4564;42.034;25.834;2023-02-10T00:36:41;102500.69;;;-5.94;77.53
9059;BME280;4564;42.034;25.834;2023-02-10T00:39:11;102499.78;;;-5.91;77.34
9059;BME280;4564;42.034;25.834;2023-02-10T00:41:38;102491.66;;;-5.82;77.29
9059;BME280;4564;42.034;25.834;2023-02-10T00:44:04;102492.56;;;-5.83;76.45
9059;BME280;4564;42.034;25.834;2023-02-10T00:46:31;102491.31;;;-5.65;77.39
9059;BME280;4564;42.034;25.834;2023-02-10T00:48:57;102484.22;;;-5.62;77.08
9059;BME280;4564;42.034;25.834;2023-02-10T00:51:25;102484.25;;;-5.65;76.96
9059;BME280;4564;42.034;25.834;2023-02-10T00:53:52;102474.56;;;-5.66;76.89
9059;BME280;4564;42.034;25.834;2023-02-10T00:56:19;102482.41;;;-5.60;76.98
9059;BME280;4564;42.034;25.834;2023-02-10T00:58:46;102471.81;;;-5.60;76.75
9059;BME280;4564;42.034;25.834;2023-02-10T01:01:12;102473.53;;;-5.57;76.42
9059;BME280;4564;42.034;25.834;2023-02-10T01:03:39;102475.22;;;-5.53;76.50
9059;BME280;4564;42.034;25.834;2023-02-10T01:06:06;102471.13;;;-5.68;75.97
9059;BME280;4564;42.034;25.834;2023-02-10T01:08:34;102462.53;;;-5.79;76.43
9059;BME280;4564;42.034;25.834;2023-02-10T01:11:00;102463.72;;;-5.94;76.85
9059;BME280;4564;42.034;25.834;2023-02-10T01:13:27;102464.88;;;-6.08;76.47
9059;BME280;4564;42.034;25.834;2023-02-10T01:15:54;102466.13;;;-6.29;77.38
9059;BME280;4564;42.034;25.834;2023-02-10T01:18:21;102462.59;;;-6.26;78.32
9059;BME280;4564;42.034;25.834;2023-02-10T01:20:47;102459.16;;;-6.31;78.39
9059;BME280;4564;42.034;25.834;2023-02-10T01:23:14;102466.16;;;-6.30;78.29
9059;BME280;4564;42.034;25.834;2023-02-10T01:25:42;102459.94;;;-6.26;78.38
9059;BME280;4564;42.034;25.834;2023-02-10T01:28:08;102460.00;;;-6.31;78.57
9059;BME280;4564;42.034;25.834;2023-02-10T01:30:36;102461.91;;;-6.38;78.61
9059;BME280;4564;42.034;25.834;2023-02-10T01:33:02;102453.94;;;-6.36;79.06
9059;BME280;4564;42.034;25.834;2023-02-10T01:35:29;102452.81;;;-6.21;79.50
9059;BME280;4564;42.034;25.834;2023-02-10T01:37:56;102445.81;;;-6.25;78.99
9059;BME280;4564;42.034;25.834;2023-02-10T01:40:23;102444.13;;;-6.29;78.99
9059;BME280;4564;42.034;25.834;2023-02-10T01:42:51;102447.78;;;-6.37;79.05
9059;BME280;4564;42.034;25.834;2023-02-10T01:45:19;102442.63;;;-6.43;79.04
9059;BME280;4564;42.034;25.834;2023-02-10T01:47:46;102441.75;;;-6.43;79.98
9059;BME280;4564;42.034;25.834;2023-02-10T01:50:13;102439.16;;;-6.46;79.99
9059;BME280;4564;42.034;25.834;2023-02-10T01:52:41;102440.09;;;-6.50;79.80
9059;BME280;4564;42.034;25.834;2023-02-10T01:55:09;102444.41;;;-6.45;80.34
9059;BME280;4564;42.034;25.834;2023-02-10T01:57:36;102439.13;;;-6.45;80.32
9059;BME280;4564;42.034;25.834;2023-02-10T02:00:06;102436.56;;;-6.48;79.74
9059;BME280;4564;42.034;25.834;2023-02-10T02:02:33;102433.22;;;-6.59;80.03
9059;BME280;4564;42.034;25.834;2023-02-10T02:05:01;102443.66;;;-6.53;80.09
9059;BME280;4564;42.034;25.834;2023-02-10T02:07:29;102439.31;;;-6.54;80.05
9059;BME280;4564;42.034;25.834;2023-02-10T02:09:58;102444.81;;;-6.69;79.83
9059;BME280;4564;42.034;25.834;2023-02-10T02:12:26;102434.38;;;-6.75;79.92
9059;BME280;4564;42.034;25.834;2023-02-10T02:14:58;102424.66;;;-6.73;80.12
9059;BME280;4564;42.034;25.834;2023-02-10T02:17:28;102423.69;;;-6.67;80.65
9059;BME280;4564;42.034;25.834;2023-02-10T02:20:10;102430.78;;;-6.71;80.11
9059;BME280;4564;42.034;25.834;2023-02-10T02:23:03;102428.56;;;-6.97;80.14
9059;BME280;4564;42.034;25.834;2023-02-10T02:25:34;102415.44;;;-7.01;81.10
9059;BME280;4564;42.034;25.834;2023-02-10T02:28:08;102416.94;;;-6.85;81.41
9059;BME280;4564;42.034;25.834;2023-02-10T02:30:45;102416.78;;;-6.76;81.49
9059;BME280;4564;42.034;25.834;2023-02-10T02:33:16;102425.50;;;-6.71;81.10
9059;BME280;4564;42.034;25.834;2023-02-10T02:35:45;102418.31;;;-6.63;80.96
9059;BME280;4564;42.034;25.834;2023-02-10T02:38:14;102414.59;;;-6.51;80.38
9059;BME280;4564;42.034;25.834;2023-02-10T02:40:40;102416.38;;;-6.52;79.78
9059;BME280;4564;42.034;25.834;2023-02-10T02:43:07;102421.91;;;-6.65;79.60
9059;BME280;4564;42.034;25.834;2023-02-10T02:45:36;102417.38;;;-6.59;79.99
9059;BME280;4564;42.034;25.834;2023-02-10T02:48:11;102422.69;;;-6.62;79.90
9059;BME280;4564;42.034;25.834;2023-02-10T02:50:45;102423.59;;;-6.63;79.69
9059;BME280;4564;42.034;25.834;2023-02-10T02:53:17;102435.19;;;-6.71;79.09
9059;BME280;4564;42.034;25.834;2023-02-10T02:55:49;102432.03;;;-6.95;79.47
9059;BME280;4564;42.034;25.834;2023-02-10T02:58:18;102433.84;;;-6.97;80.03
9059;BME280;4564;42.034;25.834;2023-02-10T03:00:47;102432.03;;;-6.93;80.08
9059;BME280;4564;42.034;25.834;2023-02-10T03:03:16;102429.47;;;-6.99;80.20
9059;BME280;4564;42.034;25.834;2023-02-10T03:05:44;102427.88;;;-7.09;80.06
9059;BME280;4564;42.034;25.834;2023-02-10T03:08:10;102424.19;;;-6.99;81.44
9059;BME280;4564;42.034;25.834;2023-02-10T03:10:37;102425.09;;;-7.00;80.71
9059;BME280;4564;42.034;25.834;2023-02-10T03:13:04;102428.69;;;-7.04;81.02
9059;BME280;4564;42.034;25.834;2023-02-10T03:15:30;102432.19;;;-7.04;81.52
9059;BME280;4564;42.034;25.834;2023-02-10T03:17:57;102432.09;;;-6.96;80.94
9059;BME280;4564;42.034;25.834;2023-02-10T03:20:24;102434.72;;;-6.96;80.70
9059;BME280;4564;42.034;25.834;2023-02-10T03:22:51;102439.31;;;-7.09;80.51
9059;BME280;4564;42.034;25.834;2023-02-10T03:25:18;102443.19;;;-7.36;80.87
9059;BME280;4564;42.034;25.834;2023-02-10T03:27:45;102438.00;;;-7.42;82.06
9059;BME280;4564;42.034;25.834;2023-02-10T03:30:12;102431.63;;;-7.26;82.21
9059;BME280;4564;42.034;25.834;2023-02-10T03:32:38;102429.78;;;-7.21;82.57
9059;BME280;4564;42.034;25.834;2023-02-10T03:35:05;102421.88;;;-7.19;82.04
9059;BME280;4564;42.034;25.834;2023-02-10T03:37:31;102421.78;;;-7.13;82.26
9059;BME280;4564;42.034;25.834;2023-02-10T03:39:59;102420.03;;;-7.12;82.04
9059;BME280;4564;42.034;25.834;2023-02-10T03:42:26;102427.81;;;-7.06;82.01
9059;BME280;4564;42.034;25.834;2023-02-10T03:44:53;102421.63;;;-7.02;81.71
9059;BME280;4564;42.034;25.834;2023-02-10T03:47:19;102426.19;;;-7.13;80.72
9059;BME280;4564;42.034;25.834;2023-02-10T03:49:46;102420.13;;;-7.20;81.30
9059;BME280;4564;42.034;25.834;2023-02-10T03:52:13;102419.19;;;-7.17;82.02
9059;BME280;4564;42.034;25.834;2023-02-10T03:54:39;102421.75;;;-7.11;82.38
9059;BME280;4564;42.034;25.834;2023-02-10T03:57:07;102420.91;;;-7.13;82.21
9059;BME280;4564;42.034;25.834;2023-02-10T03:59:34;102428.75;;;-7.07;82.26
9059;BME280;4564;42.034;25.834;2023-02-10T04:02:00;102418.19;;;-7.09;81.82
9059;BME280;4564;42.034;25.834;2023-02-10T04:04:27;102410.38;;;-7.16;82.56
9059;BME280;4564;42.034;25.834;2023-02-10T04:06:53;102415.56;;;-7.07;82.38
9059;BME280;4564;42.034;25.834;2023-02-10T04:09:20;102417.16;;;-6.97;82.85
9059;BME280;4564;42.034;25.834;2023-02-10T04:11:47;102418.06;;;-7.01;81.69
9059;BME280;4564;42.034;25.834;2023-02-10T04:14:15;102422.69;;;-7.15;81.59
9059;BME280;4564;42.034;25.834;2023-02-10T04:16:41;102417.41;;;-7.15;82.32
9059;BME280;4564;42.034;25.834;2023-02-10T04:19:08;102409.50;;;-7.17;82.76
9059;BME280;4564;42.034;25.834;2023-02-10T04:21:35;102409.66;;;-7.25;83.04
9059;BME280;4564;42.034;25.834;2023-02-10T04:24:01;102415.66;;;-7.16;83.13
9059;BME280;4564;42.034;25.834;2023-02-10T04:26:28;102413.25;;;-7.30;82.55
9059;BME280;4564;42.034;25.834;2023-02-10T04:28:54;102417.88;;;-7.49;83.19
9059;BME280;4564;42.034;25.834;2023-02-10T04:31:22;102410.84;;;-7.45;83.16
9059;BME280;4564;42.034;25.834;2023-02-10T04:33:49;102414.38;;;-7.48;82.93
9059;BME280;4564;42.034;25.834;2023-02-10T04:36:16;102416.13;;;-7.47;82.84
9059;BME280;4564;42.034;25.834;2023-02-10T04:38:42;102415.00;;;-7.29;82.34
9059;BME280;4564;42.034;25.834;2023-02-10T04:41:09;102416.13;;;-7.47;81.04
9059;BME280;4564;42.034;25.834;2023-02-10T04:43:35;102410.19;;;-7.66;81.42
9059;BME280;4564;42.034;25.834;2023-02-10T04:46:02;102418.91;;;-7.57;82.36
9059;BME280;4564;42.034;25.834;2023-02-10T04:48:30;102428.50;;;-7.55;82.96
9059;BME280;4564;42.034;25.834;2023-02-10T04:50:57;102430.19;;;-7.49;83.53
9059;BME280;4564;42.034;25.834;2023-02-10T04:53:24;102428.28;;;-7.37;82.94
9059;BME280;4564;42.034;25.834;2023-02-10T04:55:50;102428.31;;;-7.40;83.04
9059;BME280;4564;42.034;25.834;2023-02-10T04:58:17;102425.72;;;-7.41;83.15
9059;BME280;4564;42.034;25.834;2023-02-10T05:00:44;102429.22;;;-7.41;82.99
9059;BME280;4564;42.034;25.834;2023-02-10T05:03:10;102432.81;;;-7.48;83.62
9059;BME280;4564;42.034;25.834;2023-02-10T05:05:38;102423.91;;;-7.39;83.34
9059;BME280;4564;42.034;25.834;2023-02-10T05:08:05;102430.19;;;-7.48;82.32
9059;BME280;4564;42.034;25.834;2023-02-10T05:10:32;102435.59;;;-7.57;82.20
9059;BME280;4564;42.034;25.834;2023-02-10T05:12:58;102438.09;;;-7.48;82.66
9059;BME280;4564;42.034;25.834;2023-02-10T05:15:25;102436.41;;;-7.55;81.42
9059;BME280;4564;42.034;25.834;2023-02-10T05:17:51;102433.19;;;-7.77;80.74
9059;BME280;4564;42.034;25.834;2023-02-10T05:20:18;102438.50;;;-7.81;81.99
9059;BME280;4564;42.034;25.834;2023-02-10T05:22:46;102436.72;;;-7.78;82.70
9059;BME280;4564;42.034;25.834;2023-02-10T05:25:13;102440.19;;;-7.76;82.69
9059;BME280;4564;42.034;25.834;2023-02-10T05:27:39;102446.28;;;-7.69;82.48
9059;BME280;4564;42.034;25.834;2023-02-10T05:30:06;102449.59;;;-7.55;82.71
9059;BME280;4564;42.034;25.834;2023-02-10T05:32:34;102451.31;;;-7.51;81.88
9059;BME280;4564;42.034;25.834;2023-02-10T05:35:01;102449.59;;;-7.55;82.25
9059;BME280;4564;42.034;25.834;2023-02-10T05:37:27;102453.81;;;-7.40;82.46
9059;BME280;4564;42.034;25.834;2023-02-10T05:39:55;102458.00;;;-7.26;82.24
9059;BME280;4564;42.034;25.834;2023-02-10T05:42:22;102454.19;;;-7.06;82.09
9059;BME280;4564;42.034;25.834;2023-02-10T05:44:48;102454.19;;;-7.06;80.97
9059;BME280;4564;42.034;25.834;2023-02-10T05:47:15;102457.84;;;-7.13;81.36
9059;BME280;4564;42.034;25.834;2023-02-10T05:49:41;102458.63;;;-7.08;81.32
9059;BME280;4564;42.034;25.834;2023-02-10T05:52:08;102456.81;;;-7.06;81.10
9059;BME280;4564;42.034;25.834;2023-02-10T05:54:34;102457.63;;;-7.01;81.66
9059;BME280;4564;42.034;25.834;2023-02-10T05:57:02;102455.81;;;-6.96;81.87
9059;BME280;4564;42.034;25.834;2023-02-10T05:59:29;102454.81;;;-6.89;81.36
9059;BME280;4564;42.034;25.834;2023-02-10T06:01:56;102460.88;;;-6.84;81.08
9059;BME280;4564;42.034;25.834;2023-02-10T06:04:23;102455.50;;;-6.75;81.11
9059;BME280;4564;42.034;25.834;2023-02-10T06:06:49;102449.19;;;-6.68;80.72
9059;BME280;4564;42.034;25.834;2023-02-10T06:09:16;102458.59;;;-6.52;80.74
9059;BME280;4564;42.034;25.834;2023-02-10T06:11:43;102456.22;;;-6.16;80.50
9059;BME280;4564;42.034;25.834;2023-02-10T06:14:11;102456.34;;;-5.36;79.84
9059;BME280;4564;42.034;25.834;2023-02-10T06:16:37;102449.66;;;-4.40;75.32
9059;BME280;4564;42.034;25.834;2023-02-10T06:19:04;102453.78;;;-3.65;73.38
9059;BME280;4564;42.034;25.834;2023-02-10T06:21:30;102460.75;;;-3.30;68.56
9059;BME280;4564;42.034;25.834;2023-02-10T06:23:57;102470.09;;;-2.89;67.14
9059;BME280;4564;42.034;25.834;2023-02-10T06:26:24;102468.81;;;-2.50;64.77
9059;BME280;4564;42.034;25.834;2023-02-10T06:28:51;102469.28;;;-2.11;64.31
9059;BME280;4564;42.034;25.834;2023-02-10T06:31:19;102456.44;;;-1.75;63.17
9059;BME280;4564;42.034;25.834;2023-02-10T06:33:46;102463.06;;;-1.15;63.18
9059;BME280;4564;42.034;25.834;2023-02-10T06:36:13;102462.09;;;-0.48;61.43
9059;BME280;4564;42.034;25.834;2023-02-10T06:38:39;102454.84;;;0.76;58.56
9059;BME280;4564;42.034;25.834;2023-02-10T06:41:06;102461.16;;;1.12;59.10
9059;BME280;4564;42.034;25.834;2023-02-10T06:43:32;102472.56;;;1.52;56.68
9059;BME280;4564;42.034;25.834;2023-02-10T06:45:59;102465.38;;;2.05;54.01
9059;BME280;4564;42.034;25.834;2023-02-10T06:48:27;102465.75;;;2.32;51.60
9059;BME280;4564;42.034;25.834;2023-02-10T06:50:54;102465.03;;;2.79;49.46
9059;BME280;4564;42.034;25.834;2023-02-10T06:53:21;102462.94;;;2.01;49.61
9059;BME280;4564;42.034;25.834;2023-02-10T06:55:47;102462.34;;;2.46;49.43
9059;BME280;4564;42.034;25.834;2023-02-10T06:58:14;102464.84;;;2.97;50.45
9059;BME280;4564;42.034;25.834;2023-02-10T07:00:42;102465.50;;;3.34;49.26
9059;BME280;4564;42.034;25.834;2023-02-10T07:03:10;102463.41;;;3.08;48.23
9059;BME280;4564;42.034;25.834;2023-02-10T07:05:38;102468.19;;;3.79;47.50
9059;BME280;4564;42.034;25.834;2023-02-10T07:08:05;102465.13;;;3.86;45.08
9059;BME280;4564;42.034;25.834;2023-02-10T07:10:32;102466.09;;;3.39;45.58
9059;BME280;4564;42.034;25.834;2023-02-10T07:12:59;102468.25;;;3.17;46.18
9059;BME280;4564;42.034;25.834;2023-02-10T07:15:25;102465.03;;;2.94;46.55
9059;BME280;4564;42.034;25.834;2023-02-10T07:17:52;102467.78;;;2.77;47.70
9059;BME280;4564;42.034;25.834;2023-02-10T07:20:19;102465.88;;;2.64;48.19
9059;BME280;4564;42.034;25.834;2023-02-10T07:22:47;102465.56;;;3.32;47.14
9059;BME280;4564;42.034;25.834;2023-02-10T07:25:13;102471.06;;;3.76;45.83
9059;BME280;4564;42.034;25.834;2023-02-10T07:27:40;102464.38;;;4.28;47.67
9059;BME280;4564;42.034;25.834;2023-02-10T07:30:08;102472.22;;;4.75;45.51
9059;BME280;4564;42.034;25.834;2023-02-10T07:32:35;102469.44;;;4.90;44.40
9059;BME280;4564;42.034;25.834;2023-02-10T07:35:01;102465.75;;;5.05;44.77
9059;BME280;4564;42.034;25.834;2023-02-10T07:37:28;102454.38;;;5.15;43.71
9059;BME280;4564;42.034;25.834;2023-02-10T07:39:56;102458.25;;;5.11;44.71
9059;BME280;4564;42.034;25.834;2023-02-10T07:42:23;102452.97;;;5.36;43.33
9059;BME280;4564;42.034;25.834;2023-02-10T07:44:49;102453.00;;;4.95;44.45
9059;BME280;4564;42.034;25.834;2023-02-10T07:47:16;102451.00;;;5.25;43.42
9059;BME280;4564;42.034;25.834;2023-02-10T07:49:42;102451.09;;;5.24;43.13
9059;BME280;4564;42.034;25.834;2023-02-10T07:52:09;102448.81;;;5.18;43.58
9059;BME280;4564;42.034;25.834;2023-02-10T07:54:36;102450.81;;;5.28;43.45
9059;BME280;4564;42.034;25.834;2023-02-10T07:57:04;102449.84;;;5.56;42.42
9059;BME280;4564;42.034;25.834;2023-02-10T07:59:30;102448.47;;;5.63;41.80
9059;BME280;4564;42.034;25.834;2023-02-10T08:01:57;102443.81;;;5.53;42.25
9059;BME280;4564;42.034;25.834;2023-02-10T08:04:24;102436.59;;;5.26;42.51
9059;BME280;4564;42.034;25.834;2023-02-10T08:06:51;102444.44;;;4.46;44.20
9059;BME280;4564;42.034;25.834;2023-02-10T08:09:17;102393.50;;;3.11;48.00
9059;BME280;4564;42.034;25.834;2023-02-10T08:11:44;102443.53;;;3.12;48.91
9059;BME280;4564;42.034;25.834;2023-02-10T08:14:11;102436.41;;;2.95;49.57
9059;BME280;4564;42.034;25.834;2023-02-10T08:16:38;102438.75;;;2.85;50.45
9059;BME280;4564;42.034;25.834;2023-02-10T08:19:05;102439.84;;;2.81;49.80
9059;BME280;4564;42.034;25.834;2023-02-10T08:21:31;102438.66;;;2.54;51.74
9059;BME280;4564;42.034;25.834;2023-02-10T08:23:58;102437.31;;;2.63;52.75
9059;BME280;4564;42.034;25.834;2023-02-10T08:26:25;102430.59;;;2.71;51.76
9059;BME280;4564;42.034;25.834;2023-02-10T08:28:52;102432.13;;;2.60;51.87
9059;BME280;4564;42.034;25.834;2023-02-10T08:31:21;102437.00;;;2.69;52.91
9059;BME280;4564;42.034;25.834;2023-02-10T08:33:48;102428.00;;;2.70;52.60
9059;BME280;4564;42.034;25.834;2023-02-10T08:36:15;102426.97;;;2.72;52.69
9059;BME280;4564;42.034;25.834;2023-02-10T08:38:43;102434.06;;;2.73;51.31
9059;BME280;4564;42.034;25.834;2023-02-10T08:41:10;102431.47;;;2.87;50.83
9059;BME280;4564;42.034;25.834;2023-02-10T08:43:36;102428.03;;;2.85;50.56
9059;BME280;4564;42.034;25.834;2023-02-10T08:46:03;102432.94;;;2.93;51.26
9059;BME280;4564;42.034;25.834;2023-02-10T08:48:32;102433.47;;;3.00;50.57
9059;BME280;4564;42.034;25.834;2023-02-10T08:50:58;102427.31;;;2.97;50.44
9059;BME280;4564;42.034;25.834;2023-02-10T08:53:25;102430.38;;;3.07;49.22
9059;BME280;4564;42.034;25.834;2023-02-10T08:55:55;102429.59;;;3.05;50.46
9059;BME280;4564;42.034;25.834;2023-02-10T08:58:22;102431.81;;;2.97;50.14
9059;BME280;4564;42.034;25.834;2023-02-10T09:00:49;102419.72;;;3.06;49.09
9059;BME280;4564;42.034;25.834;2023-02-10T09:03:15;102430.44;;;3.06;50.59
9059;BME280;4564;42.034;25.834;2023-02-10T09:05:43;102425.50;;;3.14;49.97
9059;BME280;4564;42.034;25.834;2023-02-10T09:08:11;102429.06;;;3.14;50.11
9059;BME280;4564;42.034;25.834;2023-02-10T09:10:38;102419.19;;;3.15;49.03
9059;BME280;4564;42.034;25.834;2023-02-10T09:13:05;102417.31;;;3.17;48.91
9059;BME280;4564;42.034;25.834;2023-02-10T09:15:34;102422.81;;;3.14;47.43
9059;BME280;4564;42.034;25.834;2023-02-10T09:18:02;102409.69;;;2.93;49.85
9059;BME280;4564;42.034;25.834;2023-02-10T09:20:28;102419.03;;;3.02;49.07
9059;BME280;4564;42.034;25.834;2023-02-10T09:22:56;102413.16;;;3.11;49.52
9059;BME280;4564;42.034;25.834;2023-02-10T09:25:23;102403.63;;;3.21;49.04
9059;BME280;4564;42.034;25.834;2023-02-10T09:27:50;102400.06;;;3.21;48.92
9059;BME280;4564;42.034;25.834;2023-02-10T09:30:18;102392.69;;;3.40;49.55
9059;BME280;4564;42.034;25.834;2023-02-10T09:32:45;102397.88;;;3.43;49.22
9059;BME280;4564;42.034;25.834;2023-02-10T09:35:13;102395.44;;;3.54;50.73
9059;BME280;4564;42.034;25.834;2023-02-10T09:37:40;102385.00;;;3.64;48.43
9059;BME280;4564;42.034;25.834;2023-02-10T09:40:09;102373.03;;;3.69;48.79
9059;BME280;4564;42.034;25.834;2023-02-10T09:42:40;102375.56;;;3.87;49.17
9059;BME280;4564;42.034;25.834;2023-02-10T09:45:13;102369.94;;;4.05;47.52
9059;BME280;4564;42.034;25.834;2023-02-10T09:47:43;102356.19;;;3.82;47.04
9059;BME280;4564;42.034;25.834;2023-02-10T09:50:25;102361.72;;;3.78;47.96
9059;BME280;4564;42.034;25.834;2023-02-10T09:53:00;102361.00;;;3.91;46.45
9059;BME280;4564;42.034;25.834;2023-02-10T09:55:33;102354.22;;;3.99;47.80
9059;BME280;4564;42.034;25.834;2023-02-10T09:58:01;102349.31;;;4.06;47.10
9059;BME280;4564;42.034;25.834;2023-02-10T10:00:33;102345.28;;;4.13;46.80
9059;BME280;4564;42.034;25.834;2023-02-10T10:03:01;102344.91;;;4.19;47.11
9059;BME280;4564;42.034;25.834;2023-02-10T10:05:35;102341.28;;;4.20;46.69
9059;BME280;4564;42.034;25.834;2023-02-10T10:08:04;102333.97;;;4.22;45.83
9059;BME280;4564;42.034;25.834;2023-02-10T10:10:37;102332.53;;;4.31;47.83
9059;BME280;4564;42.034;25.834;2023-02-10T10:13:07;102331.66;;;4.02;46.41
9059;BME280;4564;42.034;25.834;2023-02-10T10:15:40;102326.81;;;3.64;47.37
9059;BME280;4564;42.034;25.834;2023-02-10T10:18:12;102331.78;;;3.56;46.46
9059;BME280;4564;42.034;25.834;2023-02-10T10:20:48;102328.50;;;3.51;47.18
9059;BME280;4564;42.034;25.834;2023-02-10T10:23:30;102327.91;;;3.76;48.64
9059;BME280;4564;42.034;25.834;2023-02-10T10:26:07;102329.13;;;3.85;47.63
9059;BME280;4564;42.034;25.834;2023-02-10T10:28:41;102319.56;;;3.95;46.90
9059;BME280;4564;42.034;25.834;2023-02-10T10:31:13;102312.56;;;4.06;47.58
9059;BME280;4564;42.034;25.834;2023-02-10T10:33:43;102320.91;;;4.02;47.57
9059;BME280;4564;42.034;25.834;2023-02-10T10:36:12;102295.69;;;3.90;45.59
9059;BME280;4564;42.034;25.834;2023-02-10T10:38:41;102290.03;;;3.80;46.44
9059;BME280;4564;42.034;25.834;2023-02-10T10:41:12;102287.31;;;3.66;46.17
9059;BME280;4564;42.034;25.834;2023-02-10T10:43:42;102293.81;;;3.62;45.91
9059;BME280;4564;42.034;25.834;2023-02-10T10:46:12;102295.47;;;3.35;46.76
9059;BME280;4564;42.034;25.834;2023-02-10T10:48:40;102292.22;;;3.00;47.53
9059;BME280;4564;42.034;25.834;2023-02-10T10:51:07;102277.84;;;3.01;48.02
9059;BME280;4564;42.034;25.834;2023-02-10T10:53:36;102273.31;;;3.17;47.67
9059;BME280;4564;42.034;25.834;2023-02-10T10:56:05;102276.44;;;3.40;47.34
9059;BME280;4564;42.034;25.834;2023-02-10T10:58:35;102268.50;;;3.52;46.84
9059;BME280;4564;42.034;25.834;2023-02-10T11:01:03;102268.41;;;3.68;47.39
9059;BME280;4564;42.034;25.834;2023-02-10T11:03:30;102261.44;;;3.79;46.85
9059;BME280;4564;42.034;25.834;2023-02-10T11:05:58;102257.78;;;3.95;47.50
9059;BME280;4564;42.034;25.834;2023-02-10T11:08:27;102264.22;;;4.06;45.67
9059;BME280;4564;42.034;25.834;2023-02-10T11:10:55;102255.50;;;4.03;45.70
9059;BME280;4564;42.034;25.834;2023-02-10T11:13:23;102252.81;;;4.03;46.55
9059;BME280;4564;42.034;25.834;2023-02-10T11:15:58;102249.44;;;4.13;46.24
9059;BME280;4564;42.034;25.834;2023-02-10T11:18:26;102242.63;;;4.08;46.41
9059;BME280;4564;42.034;25.834;2023-02-10T11:20:54;102230.34;;;4.18;46.28
9059;BME280;4564;42.034;25.834;2023-02-10T11:23:21;102228.59;;;4.17;46.65
9059;BME280;4564;42.034;25.834;2023-02-10T11:25:54;102234.19;;;4.14;45.95
9059;BME280;4564;42.034;25.834;2023-02-10T11:28:23;102226.34;;;3.97;46.05
9059;BME280;4564;42.034;25.834;2023-02-10T11:30:54;102220.19;;;4.09;45.04
9059;BME280;4564;42.034;25.834;2023-02-10T11:33:24;102221.25;;;3.92;45.06
9059;BME280;4564;42.034;25.834;2023-02-10T11:35:51;102213.97;;;3.80;45.02
9059;BME280;4564;42.034;25.834;2023-02-10T11:38:19;102208.50;;;3.82;45.24
9059;BME280;4564;42.034;25.834;2023-02-10T11:40:48;102206.09;;;3.91;45.93
9059;BME280;4564;42.034;25.834;2023-02-10T11:43:15;102196.59;;;4.00;45.80
9059;BME280;4564;42.034;25.834;2023-02-10T11:45:50;102198.97;;;4.18;46.80
9059;BME280;4564;42.034;25.834;2023-02-10T11:48:18;102198.75;;;4.21;46.16
9059;BME280;4564;42.034;25.834;2023-02-10T11:50:47;102193.19;;;4.25;45.58
9059;BME280;4564;42.034;25.834;2023-02-10T11:53:20;102191.47;;;4.23;44.71
9059;BME280;4564;42.034;25.834;2023-02-10T11:55:50;102186.91;;;4.38;45.08
9059;BME280;4564;42.034;25.834;2023-02-10T11:58:33;102192.88;;;4.29;43.61
9059;BME280;4564;42.034;25.834;2023-02-10T12:01:23;102191.50;;;4.09;44.62
9059;BME280;4564;42.034;25.834;2023-02-10T12:03:57;102185.75;;;4.01;45.71
9059;BME280;4564;42.034;25.834;2023-02-10T12:06:29;102182.78;;;3.92;45.26
9059;BME280;4564;42.034;25.834;2023-02-10T12:08:57;102186.47;;;3.76;44.70
9059;BME280;4564;42.034;25.834;2023-02-10T12:11:26;102180.88;;;3.79;45.09
9059;BME280;4564;42.034;25.834;2023-02-10T12:13:57;102179.56;;;3.72;45.14
9059;BME280;4564;42.034;25.834;2023-02-10T12:16:28;102171.84;;;3.95;45.25
9059;BME280;4564;42.034;25.834;2023-02-10T12:19:02;102165.09;;;4.16;44.73
9059;BME280;4564;42.034;25.834;2023-02-10T12:21:39;102155.31;;;4.15;44.82
9059;BME280;4564;42.034;25.834;2023-02-10T12:24:13;102165.47;;;4.24;44.31
9059;BME280;4564;42.034;25.834;2023-02-10T12:26:45;102155.34;;;4.28;44.56
9059;BME280;4564;42.034;25.834;2023-02-10T12:29:23;102161.44;;;4.17;43.91
9059;BME280;4564;42.034;25.834;2023-02-10T12:31:54;102158.56;;;4.20;45.15
9059;BME280;4564;42.034;25.834;2023-02-10T12:34:35;102151.09;;;4.38;44.55
9059;BME280;4564;42.034;25.834;2023-02-10T12:37:10;102151.09;;;4.38;44.48
9059;BME280;4564;42.034;25.834;2023-02-10T12:39:40;102159.00;;;4.27;44.22
9059;BME280;4564;42.034;25.834;2023-02-10T12:42:15;102148.69;;;4.20;45.40
9059;BME280;4564;42.034;25.834;2023-02-10T12:44:49;102137.16;;;4.18;45.85
9059;BME280;4564;42.034;25.834;2023-02-10T12:47:24;102136.69;;;4.26;45.21
9059;BME280;4564;42.034;25.834;2023-02-10T12:49:58;102140.31;;;4.25;45.08
9059;BME280;4564;42.034;25.834;2023-02-10T12:52:30;102142.78;;;4.28;46.72
9059;BME280;4564;42.034;25.834;2023-02-10T12:55:00;102149.19;;;4.40;45.28
9059;BME280;4564;42.034;25.834;2023-02-10T12:57:29;102145.31;;;4.44;46.00
9059;BME280;4564;42.034;25.834;2023-02-10T12:59:59;102139.06;;;4.31;45.43
9059;BME280;4564;42.034;25.834;2023-02-10T13:02:27;102143.41;;;4.19;45.58
9059;BME280;4564;42.034;25.834;2023-02-10T13:04:57;102137.63;;;4.25;45.00
9059;BME280;4564;42.034;25.834;2023-02-10T13:07:30;102140.41;;;4.23;45.82
9059;BME280;4564;42.034;25.834;2023-02-10T13:09:59;102137.25;;;4.17;46.17
9059;BME280;4564;42.034;25.834;2023-02-10T13:12:31;102130.75;;;4.21;45.03